Time;durP1;ratioP1;P1;durP2;ratioP2;P2;SDS_P1;SDS_P2;PMS_P1;PMS_P2;Temp;Humidity;BMP_temperature;BMP_pressure;BME280_temperature;BME280_humidity;BME280_pressure;Samples;Min_cycle;Max_cycle;Signal;HPM_P1;HPM_P2
2021/05/16 00:01:09;;;;;;;16.55;11.38;;;;;;;9.19;100.00;99602.06;4996713;28;20042;-81
2021/05/16 00:03:35;;;;;;;19.63;9.65;;;;;;;9.16;100.00;99605.13;4988391;28;20773;-80
2021/05/16 00:06:01;;;;;;;21.42;11.13;;;;;;;9.11;100.00;99599.47;4980952;28;20129;-81
2021/05/16 00:08:27;;;;;;;18.38;10.57;;;;;;;9.14;100.00;99604.47;4981268;28;20070;-81
2021/05/16 00:10:52;;;;;;;17.50;10.48;;;;;;;9.10;100.00;99602.34;4982026;28;20154;-80
2021/05/16 00:13:18;;;;;;;13.80;8.88;;;;;;;9.10;100.00;99602.34;4968323;28;20499;-81
2021/05/16 00:15:44;;;;;;;17.02;10.20;;;;;;;9.06;100.00;99591.16;4996934;28;20054;-80
2021/05/16 00:18:09;;;;;;;16.08;9.73;;;;;;;9.09;100.00;99596.19;4975389;28;20482;-81
2021/05/16 00:20:36;;;;;;;17.00;10.00;;;;;;;9.03;100.00;99596.88;4994860;28;20039;-81
2021/05/16 00:23:03;;;;;;;17.73;10.32;;;;;;;9.07;100.00;99598.19;4985581;28;20271;-81
2021/05/16 00:25:30;;;;;;;19.73;11.27;;;;;;;9.07;100.00;99598.19;4981154;28;20052;-80
2021/05/16 00:27:56;;;;;;;20.58;11.10;;;;;;;9.06;100.00;99596.50;4989020;28;20042;-81
2021/05/16 00:30:25;;;;;;;20.38;10.60;;;;;;;9.01;100.00;99599.75;4984997;28;20050;-80
2021/05/16 00:32:51;;;;;;;24.00;11.57;;;;;;;9.05;100.00;99597.53;4987111;28;20039;-81
2021/05/16 00:35:19;;;;;;;26.83;11.60;;;;;;;9.02;100.00;99597.91;4987159;28;20038;-81
2021/05/16 00:37:44;;;;;;;23.92;10.88;;;;;;;9.04;100.00;99590.53;4989689;28;20562;-81
2021/05/16 00:40:11;;;;;;;22.95;11.13;;;;;;;9.05;100.00;99597.53;4985472;28;20451;-80
2021/05/16 00:42:36;;;;;;;19.50;10.27;;;;;;;9.01;100.00;99593.56;4985888;28;20034;-81
2021/05/16 00:45:22;;;;;;;23.08;12.70;;;;;;;9.05;100.00;99594.84;4986808;28;20054;-81
2021/05/16 00:47:51;;;;;;;20.50;11.68;;;;;;;9.05;100.00;99586.84;4971957;28;20050;-81
2021/05/16 00:50:20;;;;;;;25.92;12.65;;;;;;;9.09;100.00;99590.81;5000956;28;20089;-80
2021/05/16 00:52:46;;;;;;;24.88;13.00;;;;;;;9.13;100.00;99581.41;4953402;28;20521;-81
2021/05/16 00:55:12;;;;;;;22.55;13.02;;;;;;;9.16;100.00;99582.88;4982542;28;20050;-80
2021/05/16 00:57:38;;;;;;;26.27;13.00;;;;;;;9.18;100.00;99579.00;4971698;28;20252;-81
2021/05/16 01:00:07;;;;;;;23.92;12.43;;;;;;;9.23;100.00;99575.75;4957021;28;20227;-80
2021/05/16 01:02:33;;;;;;;26.52;12.05;;;;;;;9.24;100.00;99582.78;4972357;28;20038;-80
2021/05/16 01:04:58;;;;;;;24.38;12.25;;;;;;;9.28;100.00;99584.06;4961978;28;20114;-81
2021/05/16 01:07:24;;;;;;;21.27;10.57;;;;;;;9.29;100.00;99579.53;4978459;28;20423;-81
2021/05/16 01:09:50;;;;;;;23.90;12.32;;;;;;;9.32;100.00;99584.53;4975981;28;20470;-80
2021/05/16 01:12:16;;;;;;;24.08;10.45;;;;;;;9.34;100.00;99577.13;4966020;28;20054;-81
2021/05/16 01:14:45;;;;;;;22.52;10.15;;;;;;;9.36;100.00;99577.78;4988267;28;20107;-81
2021/05/16 01:17:12;;;;;;;21.52;11.35;;;;;;;9.37;100.00;99582.13;4981157;28;20038;-81
2021/05/16 01:19:38;;;;;;;20.88;10.90;;;;;;;9.38;100.00;99573.06;4989541;28;20050;-81
2021/05/16 01:22:07;;;;;;;21.92;10.63;;;;;;;9.35;100.00;99586.81;4991245;28;20046;-81
2021/05/16 01:24:32;;;;;;;24.10;11.95;;;;;;;9.43;100.00;99584.06;4973553;28;20096;-81
2021/05/16 01:26:59;;;;;;;19.65;10.57;;;;;;;9.38;100.00;99581.09;4970869;28;20133;-81
2021/05/16 01:29:28;;;;;;;21.00;11.20;;;;;;;9.41;100.00;99580.75;4981038;28;20038;-80
2021/05/16 01:31:54;;;;;;;17.40;10.60;;;;;;;9.46;100.00;99584.50;4966685;28;20035;-80
2021/05/16 01:34:22;;;;;;;18.55;10.05;;;;;;;9.44;100.00;99583.06;4983231;28;20053;-81
2021/05/16 01:36:47;;;;;;;18.73;10.30;;;;;;;9.44;100.00;99583.88;4958383;28;20551;-81
2021/05/16 01:39:14;;;;;;;17.95;9.80;;;;;;;9.40;100.00;99579.06;4982648;28;20184;-82
2021/05/16 01:41:40;;;;;;;22.15;11.27;;;;;;;9.43;100.00;99582.19;4981202;28;20333;-81
2021/05/16 01:44:10;;;;;;;17.38;9.48;;;;;;;9.46;100.00;99586.34;4969006;28;20447;-82
2021/05/16 01:46:36;;;;;;;24.58;11.13;;;;;;;9.41;100.00;99583.44;4965054;28;20042;-82
2021/05/16 01:49:02;;;;;;;22.08;11.95;;;;;;;9.44;100.00;99581.19;4979423;28;20414;-81
2021/05/16 01:51:29;;;;;;;19.55;9.82;;;;;;;9.44;100.00;99585.72;4979199;28;20391;-81
2021/05/16 01:53:56;;;;;;;19.42;9.32;;;;;;;9.40;100.00;99581.75;4982439;28;20035;-81
2021/05/16 01:56:27;;;;;;;21.48;10.68;;;;;;;9.45;100.00;99582.03;4963972;28;20077;-82
2021/05/16 01:58:54;;;;;;;19.45;10.25;;;;;;;9.42;100.00;99577.03;4979252;28;20050;-81
2021/05/16 02:01:19;;;;;;;19.60;9.95;;;;;;;9.40;100.00;99579.91;4989054;28;20097;-81
2021/05/16 02:03:45;;;;;;;24.95;11.35;;;;;;;9.41;100.00;99578.06;4988633;28;20058;-83
2021/05/16 02:06:13;;;;;;;19.73;9.93;;;;;;;9.39;100.00;99580.91;4971618;28;20046;-82
2021/05/16 02:08:43;;;;;;;19.05;9.55;;;;;;;9.38;100.00;99575.75;4969641;28;20427;-81
2021/05/16 02:11:09;;;;;;;20.27;10.43;;;;;;;9.42;100.00;99579.72;4979666;28;20035;-82
2021/05/16 02:13:40;;;;;;;22.55;11.05;;;;;;;9.43;100.00;99576.84;4978782;28;20053;-81
2021/05/16 02:16:06;;;;;;;22.15;10.07;;;;;;;9.42;100.00;99579.72;4976682;28;20050;-81
2021/05/16 02:18:32;;;;;;;24.35;10.68;;;;;;;9.45;100.00;99584.69;4978257;28;20510;-81
2021/05/16 02:20:58;;;;;;;22.13;11.43;;;;;;;9.48;100.00;99582.47;4974583;28;20035;-81
2021/05/16 02:23:24;;;;;;;21.85;11.07;;;;;;;9.47;100.00;99582.69;4984237;28;20519;-81
2021/05/16 02:25:50;;;;;;;27.25;11.80;;;;;;;9.51;100.00;99586.63;4981028;28;20046;-81
2021/05/16 02:28:16;;;;;;;23.15;10.27;;;;;;;9.50;100.00;99582.31;4981606;28;20247;-82
2021/05/16 02:30:41;;;;;;;21.55;10.35;;;;;;;9.49;100.00;99577.94;4972548;28;20494;-82
2021/05/16 02:33:07;;;;;;;25.15;10.40;;;;;;;9.52;100.00;99574.06;4985479;28;20438;-81
2021/05/16 02:35:32;;;;;;;18.80;8.95;;;;;;;9.50;100.00;99579.63;4979136;28;20503;-81
2021/05/16 02:37:58;;;;;;;26.70;11.75;;;;;;;9.54;100.00;99583.56;4989927;28;20549;-81
2021/05/16 02:40:23;;;;;;;22.38;11.48;;;;;;;9.61;100.00;99575.63;4980818;28;20051;-82
2021/05/16 02:42:49;;;;;;;25.02;9.80;;;;;;;9.55;100.00;99573.69;4985603;28;20046;-82
2021/05/16 02:45:15;;;;;;;26.75;9.57;;;;;;;9.51;100.00;99577.78;4983208;28;20214;-81
2021/05/16 02:47:41;;;;;;;25.55;10.07;;;;;;;9.53;100.00;99581.94;4960840;28;29890;-81
2021/05/16 02:50:07;;;;;;;22.80;10.88;;;;;;;9.54;100.00;99580.91;4977480;28;20043;-81
2021/05/16 02:52:33;;;;;;;24.75;10.98;;;;;;;9.59;100.00;99581.19;4997708;28;20089;-82
2021/05/16 02:54:58;;;;;;;25.35;10.57;;;;;;;9.60;100.00;99577.47;4985968;28;20046;-82
2021/05/16 02:57:24;;;;;;;29.27;11.15;;;;;;;9.57;100.00;99583.19;4989038;28;20104;-81
2021/05/16 02:59:49;;;;;;;27.33;9.80;;;;;;;9.59;100.00;99585.72;4980245;28;20046;-81
2021/05/16 03:02:17;;;;;;;25.08;10.05;;;;;;;9.57;100.00;99582.38;4948690;28;20062;-81
2021/05/16 03:04:43;;;;;;;28.20;10.27;;;;;;;9.57;100.00;99577.84;4952663;28;20454;-81
2021/05/16 03:07:09;;;;;;;28.42;9.65;;;;;;;9.61;100.00;99572.94;4992661;28;20511;-82
2021/05/16 03:09:35;;;;;;;27.98;10.35;;;;;;;9.56;100.00;99586.09;4977440;28;20039;-81
2021/05/16 03:12:05;;;;;;;29.08;10.45;;;;;;;9.57;100.00;99585.88;4996077;28;20462;-82
2021/05/16 03:14:31;;;;;;;30.73;9.15;;;;;;;9.61;100.00;99587.19;4985703;28;20329;-81
2021/05/16 03:16:58;;;;;;;24.80;9.85;;;;;;;9.60;100.00;99588.19;4972340;28;20058;-81
2021/05/16 03:19:24;;;;;;;26.80;9.45;;;;;;;9.60;100.00;99585.50;4991754;28;20038;-81
2021/05/16 03:21:50;;;;;;;30.33;10.00;;;;;;;9.60;100.00;99585.50;4992222;28;20490;-81
2021/05/16 03:24:16;;;;;;;23.08;8.63;;;;;;;9.60;100.00;99587.34;5001266;28;20149;-82
2021/05/16 03:26:41;;;;;;;30.60;9.05;;;;;;;9.56;100.00;99589.59;4972695;28;20058;-81
2021/05/16 03:29:08;;;;;;;26.13;9.05;;;;;;;9.55;100.00;99590.63;4986014;28;20361;-81
2021/05/16 03:31:34;;;;;;;26.48;8.68;;;;;;;9.57;100.00;99591.25;4968410;28;20236;-81
2021/05/16 03:34:00;;;;;;;25.48;9.20;;;;;;;9.63;100.00;99582.44;4981810;28;20042;-81
2021/05/16 03:36:25;;;;;;;26.52;9.43;;;;;;;9.56;100.00;99586.91;4985531;28;20050;-81
2021/05/16 03:38:51;;;;;;;29.25;8.63;;;;;;;9.53;100.00;99589.97;4974329;28;20043;-81
2021/05/16 03:41:16;;;;;;;21.75;8.98;;;;;;;9.51;100.00;99589.31;4981455;28;20038;-81
2021/05/16 03:43:42;;;;;;;33.08;9.55;;;;;;;9.56;100.00;99586.91;4982237;28;20046;-81
2021/05/16 03:46:08;;;;;;;35.33;9.38;;;;;;;9.53;100.00;99591.81;4985210;28;20054;-81
2021/05/16 03:48:33;;;;;;;29.95;8.82;;;;;;;9.56;100.00;99594.13;4966272;28;20049;-81
2021/05/16 03:50:59;;;;;;;24.02;7.25;;;;;;;9.50;100.00;99587.66;4957870;28;20030;-82
2021/05/16 03:53:24;;;;;;;27.05;7.28;;;;;;;9.47;100.00;99590.72;4990637;28;20042;-82
2021/05/16 03:55:49;;;;;;;24.60;7.25;;;;;;;9.47;100.00;99594.22;4956298;28;20104;-81
2021/05/16 03:58:15;;;;;;;25.98;8.40;;;;;;;9.52;100.00;99585.59;4969228;28;20466;-81
2021/05/16 04:00:40;;;;;;;24.98;8.40;;;;;;;9.50;100.00;99593.03;4981503;28;20101;-82
2021/05/16 04:03:05;;;;;;;26.60;8.57;;;;;;;9.52;100.00;99595.50;4980801;28;20049;-81
2021/05/16 04:05:32;;;;;;;24.95;7.97;;;;;;;9.49;100.00;99594.88;4968749;28;20049;-82
2021/05/16 04:07:57;;;;;;;26.77;7.50;;;;;;;9.52;100.00;99595.50;4982899;28;20046;-81
2021/05/16 04:10:23;;;;;;;28.50;8.93;;;;;;;9.52;100.00;99606.19;4982757;28;20045;-81
2021/05/16 04:12:50;;;;;;;24.95;7.88;;;;;;;9.54;100.00;99599.66;5005171;28;20073;-81
2021/05/16 04:15:15;;;;;;;28.15;7.90;;;;;;;9.52;100.00;99606.19;4984402;28;20077;-81
2021/05/16 04:17:41;;;;;;;29.50;8.60;;;;;;;9.52;100.00;99595.50;4983164;28;20045;-81
2021/05/16 04:20:07;;;;;;;27.65;8.68;;;;;;;9.53;100.00;99605.22;4962718;28;20042;-81
2021/05/16 04:22:32;;;;;;;26.85;7.35;;;;;;;9.50;100.00;99606.41;4967809;28;20137;-81
2021/05/16 04:24:59;;;;;;;23.45;6.35;;;;;;;9.46;100.00;99603.25;4954446;28;20046;-81
2021/05/16 04:27:24;;;;;;;26.65;8.68;;;;;;;9.54;100.00;99599.66;4951782;28;20093;-81
2021/05/16 04:29:49;;;;;;;22.60;7.97;;;;;;;9.54;100.00;99606.84;4979801;28;20070;-81
2021/05/16 04:32:15;;;;;;;26.15;8.48;;;;;;;9.54;100.00;99609.53;4964544;28;20070;-82
2021/05/16 04:34:40;;;;;;;20.98;8.23;;;;;;;9.53;100.00;99603.34;4985050;28;20038;-81
2021/05/16 04:37:05;;;;;;;27.02;9.07;;;;;;;9.56;100.00;99608.34;4951837;28;633795;-82
2021/05/16 04:39:31;;;;;;;30.90;9.68;;;;;;;9.59;100.00;99615.16;4974385;28;20455;-82
2021/05/16 04:41:56;;;;;;;28.50;8.80;;;;;;;9.56;100.00;99612.88;4986966;28;20053;-82
2021/05/16 04:44:22;;;;;;;29.45;9.57;;;;;;;9.53;100.00;99618.59;4979727;28;20053;-82
2021/05/16 04:46:47;;;;;;;33.08;8.80;;;;;;;9.54;100.00;99612.22;4948975;28;20047;-82
2021/05/16 04:49:13;;;;;;;31.50;9.32;;;;;;;9.57;100.00;99614.53;4984863;28;20047;-81
2021/05/16 04:51:38;;;;;;;30.20;9.63;;;;;;;9.54;100.00;99610.38;4978388;28;20098;-81
2021/05/16 04:54:04;;;;;;;26.40;9.57;;;;;;;9.57;100.00;99615.34;4970898;28;20550;-81
2021/05/16 04:56:29;;;;;;;25.65;9.63;;;;;;;9.55;100.00;99617.41;4961151;28;20380;-81
2021/05/16 04:58:55;;;;;;;20.85;8.50;;;;;;;9.54;100.00;99613.03;4971429;28;20058;-81
2021/05/16 05:01:24;;;;;;;32.05;9.32;;;;;;;9.58;100.00;99624.19;4967034;28;20038;-81
2021/05/16 05:03:49;;;;;;;;;;;;;;;9.58;100.00;99625.06;4978554;28;20077;-81
2021/05/16 05:06:15;;;;;;;30.40;8.73;;;;;;;9.55;100.00;99625.44;4980970;28;19925;-81
2021/05/16 05:08:42;;;;;;;28.23;9.27;;;;;;;9.55;100.00;99628.13;4977072;28;20058;-81
2021/05/16 05:11:09;;;;;;;29.27;8.85;;;;;;;9.53;100.00;99622.09;4978128;28;20047;-81
2021/05/16 05:13:34;;;;;;;26.73;9.18;;;;;;;9.55;100.00;99622.75;4970380;28;20053;-80
2021/05/16 05:16:00;;;;;;;24.35;8.10;;;;;;;9.57;100.00;99631.41;4973906;28;20043;-81
2021/05/16 05:18:26;;;;;;;30.20;9.27;;;;;;;9.63;100.00;99625.31;4977966;28;20633;-81
2021/05/16 05:20:51;;;;;;;30.27;10.50;;;;;;;9.61;100.00;99619.31;4956968;28;20448;-81
2021/05/16 05:23:17;;;;;;;30.75;8.70;;;;;;;9.57;100.00;99623.38;4984074;28;20050;-81
2021/05/16 05:25:42;;;;;;;24.77;9.45;;;;;;;9.56;100.00;99623.59;4992790;28;20141;-81
2021/05/16 05:28:08;;;;;;;25.73;8.82;;;;;;;9.58;100.00;99632.25;4985127;28;20052;-81
2021/05/16 05:30:33;;;;;;;29.98;9.57;;;;;;;9.56;100.00;99628.94;4984646;28;20035;-81
2021/05/16 05:33:00;;;;;;;32.45;10.40;;;;;;;9.63;100.00;99636.03;4983127;28;20502;-81
2021/05/16 05:35:25;;;;;;;28.42;9.60;;;;;;;9.65;100.00;99628.63;4983297;28;20057;-81
2021/05/16 05:37:51;;;;;;;28.67;10.85;;;;;;;9.66;100.00;99634.81;4959005;28;20047;-81
2021/05/16 05:40:17;;;;;;;30.85;9.70;;;;;;;9.66;100.00;99638.31;4984271;28;20077;-81
2021/05/16 05:42:42;;;;;;;29.85;9.52;;;;;;;9.65;100.00;99634.00;4983456;28;20047;-80
2021/05/16 05:45:09;;;;;;;29.10;8.32;;;;;;;9.61;100.00;99643.44;4975778;28;20045;-80
2021/05/16 05:47:35;;;;;;;29.38;8.82;;;;;;;9.66;100.00;99645.53;4982808;28;20097;-81
2021/05/16 05:50:00;;;;;;;26.90;9.55;;;;;;;9.66;100.00;99635.66;4985607;28;20039;-80
2021/05/16 05:52:26;;;;;;;23.75;9.85;;;;;;;9.66;100.00;99635.66;4969804;28;20051;-80
2021/05/16 05:54:51;;;;;;;25.05;9.88;;;;;;;9.67;100.00;99636.50;4945721;28;20075;-81
2021/05/16 05:57:17;;;;;;;23.75;8.52;;;;;;;9.67;100.00;99633.81;4964738;28;20540;-81
2021/05/16 05:59:43;;;;;;;33.35;10.65;;;;;;;9.71;100.00;99635.94;4964899;28;20704;-81
2021/05/16 06:02:09;;;;;;;27.70;9.15;;;;;;;9.74;100.00;99639.25;4947358;28;20039;-81
2021/05/16 06:04:35;;;;;;;28.70;11.25;;;;;;;9.81;100.00;99632.13;4955199;28;20038;-81
2021/05/16 06:07:00;;;;;;;34.80;11.30;;;;;;;9.83;100.00;99635.44;4965384;28;20043;-81
2021/05/16 06:09:26;;;;;;;23.50;9.88;;;;;;;9.87;100.00;99634.91;4947145;28;20546;-81
2021/05/16 06:11:51;;;;;;;22.35;9.25;;;;;;;9.82;100.00;99644.50;4976278;28;20054;-81
2021/05/16 06:14:16;;;;;;;24.67;10.60;;;;;;;9.86;100.00;99635.06;4988347;28;20190;-81
2021/05/16 06:16:42;;;;;;;29.42;10.30;;;;;;;9.86;100.00;99629.72;4988868;28;20483;-81
2021/05/16 06:19:07;;;;;;;27.02;10.27;;;;;;;9.89;100.00;99634.69;4986075;28;20034;-80
2021/05/16 06:21:33;;;;;;;26.63;10.93;;;;;;;10.00;100.00;99630.69;4987833;28;20042;-81
2021/05/16 06:26:26;;;;;;;23.05;10.45;;;;;;;9.95;100.00;99631.25;4979503;28;20137;-81
2021/05/16 06:28:52;;;;;;;26.77;10.52;;;;;;;10.00;100.00;99641.44;4976894;28;20177;-81
2021/05/16 06:31:17;;;;;;;25.50;10.18;;;;;;;10.01;100.00;99633.22;4959474;28;20070;-81
2021/05/16 06:33:42;;;;;;;29.05;9.73;;;;;;;10.01;100.00;99648.44;4974860;28;20077;-81
2021/05/16 06:36:08;;;;;;;26.92;11.18;;;;;;;10.02;100.00;99645.59;4987982;28;20035;-82
2021/05/16 06:38:33;;;;;;;27.75;12.25;;;;;;;10.04;100.00;99654.28;4987267;28;20046;-81
2021/05/16 06:40:58;;;;;;;28.40;10.38;;;;;;;10.02;100.00;99642.91;4992472;28;20038;-81
2021/05/16 06:43:24;;;;;;;32.35;11.70;;;;;;;10.14;100.00;99652.09;4980624;28;20045;-81
2021/05/16 06:45:49;;;;;;;28.45;11.38;;;;;;;10.10;100.00;99655.38;4974150;28;20050;-81
2021/05/16 06:48:16;;;;;;;32.92;11.75;;;;;;;10.10;100.00;99653.50;4969135;28;20058;-81
2021/05/16 06:50:42;;;;;;;26.42;11.52;;;;;;;10.11;100.00;99660.53;4986885;28;20126;-81
2021/05/16 06:53:08;;;;;;;30.40;10.25;;;;;;;10.08;100.00;99660.09;4975958;28;20065;-81
2021/05/16 06:55:33;;;;;;;27.40;10.50;;;;;;;10.12;100.00;99661.34;4980368;28;20038;-81
2021/05/16 06:57:58;;;;;;;27.08;13.48;;;;;;;10.22;100.00;99661.06;4978741;28;20042;-81
2021/05/16 07:00:24;;;;;;;27.15;11.57;;;;;;;10.20;100.00;99655.06;4964890;28;20066;-81
2021/05/16 07:02:49;;;;;;;30.40;12.45;;;;;;;10.27;100.00;99655.97;4986141;28;20039;-82
2021/05/16 07:05:15;;;;;;;25.98;10.68;;;;;;;10.22;100.00;99661.91;4967384;28;20136;-81
2021/05/16 07:07:40;;;;;;;27.20;11.85;;;;;;;10.23;100.00;99654.69;4994525;28;20042;-81
2021/05/16 07:10:07;;;;;;;35.85;13.02;;;;;;;10.27;100.00;99661.34;4963663;28;20133;-81
2021/05/16 07:12:32;;;;;;;27.83;12.05;;;;;;;10.26;100.00;99668.53;4973655;28;20118;-81
2021/05/16 07:14:58;;;;;;;38.45;11.57;;;;;;;10.23;100.00;99662.72;4985627;28;20132;-81
2021/05/16 07:17:23;;;;;;;34.63;12.60;;;;;;;10.22;100.00;99667.25;4977940;28;20038;-82
2021/05/16 07:19:48;;;;;;;29.75;12.40;;;;;;;10.20;100.00;99668.47;4984566;28;20126;-81
2021/05/16 07:22:14;;;;;;;30.45;13.98;;;;;;;10.24;100.00;99667.91;4963184;28;20046;-81
2021/05/16 07:24:39;;;;;;;29.63;11.85;;;;;;;10.20;99.39;99666.59;4994033;28;20769;-81
2021/05/16 07:27:05;;;;;;;27.15;12.68;;;;;;;10.21;99.08;99675.47;4963842;28;20048;-81
2021/05/16 07:29:31;;;;;;;31.52;13.20;;;;;;;10.21;99.64;99675.47;4964673;28;20558;-81
2021/05/16 07:31:57;;;;;;;26.85;12.07;;;;;;;10.12;98.68;99672.06;4976523;28;20047;-81
2021/05/16 07:34:22;;;;;;;30.83;13.30;;;;;;;10.20;98.91;99680.00;4983501;28;20047;-81
2021/05/16 07:36:47;;;;;;;29.00;10.90;;;;;;;10.12;99.36;99680.13;4966675;28;20158;-81
2021/05/16 07:39:13;;;;;;;32.47;11.85;;;;;;;10.15;98.64;99677.06;4963618;28;20035;-81
2021/05/16 07:41:38;;;;;;;37.55;12.98;;;;;;;10.21;98.68;99670.13;4979393;28;20398;-81
2021/05/16 07:44:05;;;;;;;23.92;11.00;;;;;;;10.22;99.72;99677.16;4959183;28;20092;-82
2021/05/16 07:46:31;;;;;;;30.75;12.68;;;;;;;10.35;99.35;99682.69;4982335;28;20065;-82
2021/05/16 07:48:57;;;;;;;25.80;12.38;;;;;;;10.39;98.55;99678.63;4969106;28;20779;-81
2021/05/16 07:51:22;;;;;;;26.48;12.13;;;;;;;10.45;98.48;99680.53;4975611;28;20185;-81
2021/05/16 07:53:47;;;;;;;30.35;11.93;;;;;;;10.50;97.36;99674.56;4968615;28;20058;-82
2021/05/16 07:56:13;;;;;;;34.03;13.35;;;;;;;10.53;97.53;99680.41;4987475;28;20093;-81
2021/05/16 07:58:39;;;;;;;26.40;11.95;;;;;;;10.47;96.54;99681.19;4985789;28;20041;-81
2021/05/16 08:01:06;;;;;;;29.70;11.70;;;;;;;10.50;96.85;99679.94;4983149;28;20146;-81
2021/05/16 08:03:32;;;;;;;28.08;10.23;;;;;;;10.55;96.01;99678.34;4988281;28;20069;-81
2021/05/16 08:05:58;;;;;;;29.10;10.90;;;;;;;10.59;95.73;99682.31;4990711;28;20046;-82
2021/05/16 08:08:24;;;;;;;27.98;10.00;;;;;;;10.64;95.69;99687.09;4977680;28;20035;-81
2021/05/16 08:10:51;;;;;;;28.38;12.20;;;;;;;10.74;96.05;99689.47;4981696;28;20055;-81
2021/05/16 08:13:17;;;;;;;26.08;10.82;;;;;;;10.75;94.94;99677.72;4987324;28;20065;-81
2021/05/16 08:15:42;;;;;;;26.35;10.65;;;;;;;10.75;94.70;99693.81;4964477;28;20141;-81
2021/05/16 08:18:09;;;;;;;31.08;10.68;;;;;;;10.71;93.87;99687.19;4980293;28;20041;-82
2021/05/16 08:20:35;;;;;;;21.67;10.98;;;;;;;10.73;94.25;99690.47;4984064;28;20042;-82
2021/05/16 08:23:01;;;;;;;26.65;11.32;;;;;;;10.73;94.58;99687.81;4979251;28;20451;-81
2021/05/16 08:25:26;;;;;;;26.33;11.52;;;;;;;10.78;94.74;99685.38;4988342;28;20042;-81
2021/05/16 08:27:52;;;;;;;28.67;10.68;;;;;;;10.80;95.29;99691.38;4983363;28;20047;-81
2021/05/16 08:30:19;;;;;;;29.92;12.23;;;;;;;10.81;94.78;99696.56;4975116;28;20205;-82
2021/05/16 08:32:45;;;;;;;25.67;10.82;;;;;;;10.82;94.95;99700.09;4983588;28;20042;-82
2021/05/16 08:35:11;;;;;;;22.10;10.43;;;;;;;10.78;94.44;99688.88;4977146;28;20450;-82
2021/05/16 08:37:37;;;;;;;25.20;9.55;;;;;;;10.73;93.78;99702.06;4967034;28;20185;-81
2021/05/16 08:40:04;;;;;;;24.33;9.93;;;;;;;10.73;94.26;99702.06;4983987;28;20133;-82
2021/05/16 08:42:31;;;;;;;25.38;9.88;;;;;;;10.74;93.53;99700.22;4991610;28;20439;-82
2021/05/16 08:44:56;;;;;;;23.25;9.35;;;;;;;10.76;92.53;99698.16;4969586;28;20042;-81
2021/05/16 08:47:22;;;;;;;20.20;8.85;;;;;;;10.75;92.33;99696.50;4975106;28;20054;-82
2021/05/16 08:49:49;;;;;;;19.92;9.02;;;;;;;10.75;92.42;99699.19;4981553;28;20042;-82
2021/05/16 08:52:14;;;;;;;25.38;9.43;;;;;;;10.77;93.13;99697.16;4979955;28;20046;-82
2021/05/16 08:54:40;;;;;;;26.27;10.65;;;;;;;10.82;93.00;99700.09;4977610;28;20045;-81
2021/05/16 08:57:06;;;;;;;26.92;9.90;;;;;;;10.84;92.57;99716.81;4984929;28;20042;-82
2021/05/16 08:59:31;;;;;;;25.80;9.80;;;;;;;10.81;91.22;99703.78;4981385;28;20061;-82
2021/05/16 09:01:58;;;;;;;27.23;10.27;;;;;;;10.79;91.28;99701.31;4982974;28;20042;-81
2021/05/16 09:04:35;;;;;;;18.70;9.95;;;;;;;10.80;89.92;99712.84;4982885;28;20509;-82
2021/05/16 09:07:01;;;;;;;22.95;9.60;;;;;;;10.85;89.88;99713.13;4975549;28;20092;-81
2021/05/16 09:09:34;;;;;;;22.55;10.32;;;;;;;10.88;89.60;99703.88;4991163;28;20045;-81
2021/05/16 09:12:15;;;;;;;22.67;10.95;;;;;;;10.88;90.42;99704.69;4984314;28;20061;-81
2021/05/16 09:14:53;;;;;;;25.83;10.30;;;;;;;10.83;89.62;99709.78;4980366;28;20061;-81
2021/05/16 09:17:32;;;;;;;20.07;10.07;;;;;;;10.82;90.55;99710.81;4973977;28;20376;-81
2021/05/16 09:20:01;;;;;;;24.00;11.80;;;;;;;10.84;91.51;99720.31;4945380;28;20046;-82
2021/05/16 09:22:47;;;;;;;27.45;12.98;;;;;;;10.83;91.84;99715.97;4967250;28;20499;-81
2021/05/16 09:25:25;;;;;;;26.00;11.77;;;;;;;10.96;91.35;99717.97;4968432;28;20121;-81
2021/05/16 09:27:53;;;;;;;23.37;11.27;;;;;;;11.04;91.09;99714.31;4957849;28;20050;-82
2021/05/16 09:30:19;;;;;;;20.83;10.90;;;;;;;11.11;91.09;99709.00;4967792;28;20039;-81
2021/05/16 09:32:54;;;;;;;27.08;10.45;;;;;;;11.27;90.27;99709.53;4982595;28;20442;-82
2021/05/16 09:35:37;;;;;;;23.25;10.52;;;;;;;11.43;89.81;99697.69;4968562;28;20042;-81
2021/05/16 09:38:04;;;;;;;22.80;8.45;;;;;;;11.58;88.40;99707.47;4979857;28;20521;-83
2021/05/16 09:40:43;;;;;;;19.48;8.32;;;;;;;11.76;87.29;99694.34;4993616;28;20153;-82
2021/05/16 09:43:29;;;;;;;17.17;7.97;;;;;;;11.92;86.15;99702.13;4965748;28;20046;-82
2021/05/16 09:46:01;;;;;;;22.45;7.82;;;;;;;11.90;85.24;99698.78;4975162;28;20507;-82
2021/05/16 09:48:31;;;;;;;19.50;7.07;;;;;;;12.07;84.74;99695.78;4985372;28;20046;-82
2021/05/16 09:51:26;;;;;;;19.83;7.93;;;;;;;12.16;83.75;99690.00;4977123;28;20098;-82
2021/05/16 09:53:56;;;;;;;24.10;9.13;;;;;;;12.35;85.41;99676.84;4961867;28;20061;-82
2021/05/16 09:56:56;;;;;;;22.50;7.70;;;;;;;12.51;84.02;99678.31;4975780;28;20046;-82
2021/05/16 09:59:22;;;;;;;25.10;8.15;;;;;;;12.56;82.69;99673.16;4927053;28;20067;-81
2021/05/16 10:01:47;;;;;;;22.75;9.23;;;;;;;12.35;82.60;99685.75;4972199;28;20074;-82
2021/05/16 10:04:13;;;;;;;17.67;7.57;;;;;;;12.39;83.82;99678.91;4980328;28;20141;-82
2021/05/16 10:06:38;;;;;;;19.17;7.50;;;;;;;12.51;82.09;99662.19;4985695;28;20043;-82
2021/05/16 10:09:04;;;;;;;12.93;6.32;;;;;;;12.59;82.77;99668.19;4970824;28;20077;-82
2021/05/16 10:11:31;;;;;;;19.48;6.40;;;;;;;12.77;79.58;99667.59;4984485;28;20459;-82
2021/05/16 10:14:11;;;;;;;21.52;7.88;;;;;;;13.07;81.03;99667.19;4980703;28;20050;-82
2021/05/16 10:16:40;;;;;;;22.00;9.30;;;;;;;13.06;81.13;99657.44;4983698;28;20065;-83
2021/05/16 10:19:11;;;;;;;21.15;6.50;;;;;;;13.38;81.01;99658.50;4978488;28;20047;-84
2021/05/16 10:21:36;;;;;;;18.60;6.65;;;;;;;13.49;78.72;99651.63;4983534;28;20038;-83
2021/05/16 10:24:08;;;;;;;20.67;6.03;;;;;;;13.67;79.33;99646.41;4963233;28;20087;-82
2021/05/16 10:26:34;;;;;;;17.05;5.72;;;;;;;13.79;79.28;99653.81;4975757;28;20122;-82
2021/05/16 10:29:15;;;;;;;19.50;6.15;;;;;;;13.82;76.99;99645.31;4982731;28;20631;-82
2021/05/16 10:31:51;;;;;;;16.30;5.50;;;;;;;13.97;78.25;99656.66;4965119;28;20058;-81
2021/05/16 10:34:38;;;;;;;15.93;5.18;;;;;;;13.90;76.10;99639.69;4983459;28;20042;-81
2021/05/16 10:37:04;;;;;;;11.65;4.20;;;;;;;13.86;73.98;99638.44;4966648;28;20706;-82
2021/05/16 10:39:39;;;;;;;12.48;4.20;;;;;;;13.78;72.38;99631.41;4984273;28;20039;-83
2021/05/16 10:42:23;;;;;;;13.35;4.80;;;;;;;13.66;73.20;99644.72;4975440;28;20491;-82
2021/05/16 10:45:05;;;;;;;14.77;3.97;;;;;;;13.68;74.08;99621.09;4963079;28;20054;-82
2021/05/16 10:50:30;;;;;;;14.60;5.05;;;;;;;14.09;73.30;99624.44;4980482;28;20121;-83
2021/05/16 10:53:01;;;;;;;16.88;3.95;;;;;;;14.33;72.83;99621.00;4980935;28;20097;-82
2021/05/16 10:55:29;;;;;;;15.18;4.43;;;;;;;14.28;70.67;99609.19;4984040;28;20541;-83
2021/05/16 10:57:55;;;;;;;12.55;3.38;;;;;;;14.36;70.46;99622.44;4984169;28;20474;-83
2021/05/16 11:00:20;;;;;;;10.85;2.78;;;;;;;14.38;71.23;99610.34;4963045;28;20137;-82
2021/05/16 11:03:05;;;;;;;11.20;3.15;;;;;;;14.34;70.62;99616.41;4981696;28;20126;-83
2021/05/16 11:08:32;;;;;;;13.65;2.85;;;;;;;14.15;68.10;99619.00;4980045;28;20038;-83
2021/05/16 11:10:59;;;;;;;10.20;2.75;;;;;;;14.23;68.54;99615.22;4977191;28;20343;-84
2021/05/16 11:13:31;;;;;;;11.75;3.15;;;;;;;14.44;70.30;99611.34;4978993;28;20475;-84
2021/05/16 11:16:00;;;;;;;13.25;3.08;;;;;;;14.53;69.48;99620.88;4983597;28;20034;-83
2021/05/16 11:18:25;;;;;;;8.83;3.00;;;;;;;14.43;66.71;99604.31;4982328;28;20376;-84
2021/05/16 11:20:53;;;;;;;11.57;3.22;;;;;;;14.33;66.62;99612.91;4972565;28;20328;-83
2021/05/16 11:23:25;;;;;;;12.52;3.00;;;;;;;14.31;64.96;99614.16;4984558;28;20046;-83
2021/05/16 11:25:59;;;;;;;13.02;2.65;;;;;;;14.30;65.40;99612.47;4986783;28;20491;-83
2021/05/16 11:28:28;;;;;;;11.27;2.58;;;;;;;14.22;65.23;99605.50;4981832;28;20047;-83
2021/05/16 11:30:55;;;;;;;;;;;;;;;14.28;64.86;99601.09;4982324;28;20039;-83